createdAt,value
2019-04-29T00:00:56.570Z,9.97
2019-04-29T00:03:25.658Z,9.43
2019-04-29T00:05:54.736Z,9.53
2019-04-29T00:08:23.798Z,9.57
2019-04-29T00:10:52.962Z,9.40
2019-04-29T00:13:22.213Z,10.07
2019-04-29T00:16:04.500Z,10.33
2019-04-29T00:18:55.458Z,9.80
2019-04-29T00:21:25.275Z,9.87
2019-04-29T00:24:03.573Z,9.23
2019-04-29T00:26:25.242Z,9.70
2019-04-29T00:28:54.358Z,10.50
2019-04-29T00:31:23.502Z,9.57
2019-04-29T00:33:52.578Z,9.40
2019-04-29T00:36:23.291Z,9.70
2019-04-29T00:39:10.015Z,8.83
2019-04-29T00:41:58.990Z,9.43
2019-04-29T00:46:55.786Z,9.80
2019-04-29T00:49:24.862Z,8.67
2019-04-29T00:51:53.842Z,9.10
2019-04-29T00:54:29.927Z,9.83
2019-04-29T00:56:59.006Z,10.33
2019-04-29T00:59:27.999Z,8.50
2019-04-29T01:01:57.397Z,9.00
2019-04-29T01:04:26.511Z,9.50
2019-04-29T01:06:55.661Z,8.63
2019-04-29T01:09:25.207Z,8.83
2019-04-29T01:11:54.199Z,9.60
2019-04-29T01:14:23.359Z,7.97
2019-04-29T01:16:52.768Z,9.27
2019-04-29T01:19:22.091Z,9.17
2019-04-29T01:21:51.247Z,8.37
2019-04-29T01:24:20.345Z,7.97
2019-04-29T01:27:01.669Z,8.10
2019-04-29T01:29:30.895Z,7.40
2019-04-29T01:31:59.883Z,7.27
2019-04-29T01:34:42.377Z,7.07
2019-04-29T01:37:11.359Z,7.37
2019-04-29T01:39:46.280Z,7.07
2019-04-29T01:42:22.162Z,6.93
2019-04-29T01:44:51.201Z,7.10
2019-04-29T01:47:20.260Z,7.00
2019-04-29T01:49:49.411Z,7.17
2019-04-29T01:52:18.415Z,7.30
2019-04-29T01:54:47.395Z,7.00
2019-04-29T01:57:16.471Z,6.70
2019-04-29T01:59:45.533Z,7.60
2019-04-29T02:04:42.086Z,7.47
2019-04-29T02:07:11.154Z,6.80
2019-04-29T02:09:57.030Z,7.77
2019-04-29T02:12:26.126Z,7.50
2019-04-29T02:14:55.184Z,7.73
2019-04-29T02:17:24.792Z,7.30
2019-04-29T02:19:54.136Z,7.43
2019-04-29T02:22:33.684Z,7.60
2019-04-29T02:25:09.998Z,7.50
2019-04-29T02:27:39.082Z,7.83
2019-04-29T02:30:09.427Z,7.80
2019-04-29T02:32:38.599Z,7.47
2019-04-29T02:35:07.812Z,6.87
2019-04-29T02:37:39.625Z,6.77
2019-04-29T02:40:14.849Z,6.20
2019-04-29T02:42:59.682Z,6.17
2019-04-29T02:45:30.820Z,6.00
2019-04-29T02:47:59.931Z,5.87
2019-04-29T02:50:28.363Z,5.87
2019-04-29T02:52:57.408Z,5.50
2019-04-29T02:55:40.029Z,5.23
2019-04-29T02:58:18.169Z,5.57
2019-04-29T03:01:09.503Z,5.10
2019-04-29T03:03:56.733Z,6.13
2019-04-29T03:06:26.064Z,5.60
2019-04-29T03:08:55.177Z,5.80
2019-04-29T03:11:24.261Z,5.70
2019-04-29T03:13:53.335Z,5.63
2019-04-29T03:16:22.693Z,5.70
2019-04-29T03:18:56.864Z,5.50
2019-04-29T03:21:48.424Z,5.73
2019-04-29T03:24:17.519Z,5.50
2019-04-29T03:26:46.624Z,5.40
2019-04-29T03:29:25.027Z,5.63
2019-04-29T03:31:55.724Z,5.00
2019-04-29T03:34:24.939Z,4.73
2019-04-29T03:36:54.577Z,5.00
2019-04-29T03:39:23.728Z,4.63
2019-04-29T03:41:52.854Z,5.10
2019-04-29T03:44:21.940Z,4.70
2019-04-29T03:46:51.059Z,5.07
2019-04-29T03:49:20.072Z,4.67
2019-04-29T03:51:49.181Z,4.63
2019-04-29T03:54:18.317Z,4.97
2019-04-29T03:56:47.358Z,5.23
2019-04-29T03:59:16.411Z,4.80
2019-04-29T04:01:44.726Z,4.67
2019-04-29T04:04:21.537Z,5.33
2019-04-29T04:07:12.982Z,5.00
2019-04-29T04:09:42.212Z,4.53
2019-04-29T04:12:11.264Z,4.73
2019-04-29T04:14:40.424Z,4.60
2019-04-29T04:17:20.214Z,4.50
2019-04-29T04:19:48.315Z,4.83
2019-04-29T04:22:15.845Z,4.70
2019-04-29T04:24:45.152Z,5.03
2019-04-29T04:27:14.226Z,5.40
2019-04-29T04:29:43.425Z,5.53
2019-04-29T04:32:12.489Z,5.90
2019-04-29T04:34:41.615Z,6.33
2019-04-29T04:37:10.770Z,6.10
2019-04-29T04:39:41.495Z,7.07
2019-04-29T04:42:10.492Z,5.43
2019-04-29T04:44:48.909Z,6.23
2019-04-29T04:47:19.045Z,6.30
2019-04-29T04:49:48.132Z,5.80
2019-04-29T04:52:17.205Z,6.93
2019-04-29T04:54:48.219Z,7.03
2019-04-29T04:57:17.274Z,7.23
2019-04-29T04:59:46.334Z,7.33
2019-04-29T05:02:15.382Z,7.83
2019-04-29T05:07:11.857Z,6.90
2019-04-29T05:09:40.930Z,9.77
2019-04-29T05:12:10.383Z,8.33
2019-04-29T05:14:39.459Z,9.20
2019-04-29T05:17:08.528Z,8.87
2019-04-29T05:19:37.595Z,8.60
2019-04-29T05:22:06.883Z,8.40
2019-04-29T05:24:35.959Z,7.87
2019-04-29T05:27:05.105Z,7.77
2019-04-29T05:29:34.214Z,7.27
2019-04-29T05:32:03.275Z,7.77
2019-04-29T05:34:33.995Z,8.10
2019-04-29T05:37:13.446Z,7.03
2019-04-29T05:39:42.898Z,7.60
2019-04-29T05:42:16.038Z,7.20
2019-04-29T05:44:48.401Z,7.87
2019-04-29T05:47:23.919Z,7.40
2019-04-29T05:50:11.840Z,7.80
2019-04-29T05:52:53.168Z,7.63
2019-04-29T05:55:22.251Z,8.43
2019-04-29T05:57:51.372Z,8.07
2019-04-29T06:00:23.328Z,9.40
2019-04-29T06:02:52.248Z,8.93
2019-04-29T06:05:21.354Z,9.27
2019-04-29T06:07:51.749Z,9.40
2019-04-29T06:10:22.966Z,9.20
2019-04-29T06:12:52.015Z,8.10
2019-04-29T06:15:21.258Z,9.10
2019-04-29T06:17:50.373Z,9.53
2019-04-29T06:20:22.735Z,9.70
2019-04-29T06:22:50.261Z,9.00
2019-04-29T06:25:19.282Z,10.03
2019-04-29T06:27:48.389Z,9.17
2019-04-29T06:30:17.658Z,10.07
2019-04-29T06:32:46.696Z,9.37
2019-04-29T06:35:15.816Z,9.47
2019-04-29T06:37:44.958Z,9.67
2019-04-29T06:40:14.226Z,9.80
2019-04-29T06:42:43.306Z,9.03
2019-04-29T06:45:12.763Z,9.50
2019-04-29T06:47:41.986Z,9.63
2019-04-29T06:50:11.182Z,9.63
2019-04-29T06:52:40.332Z,9.23
2019-04-29T06:55:09.623Z,9.73
2019-04-29T06:57:38.703Z,10.07
2019-04-29T07:00:08.790Z,10.50
2019-04-29T07:02:37.875Z,10.93
2019-04-29T07:05:07.390Z,11.07
2019-04-29T07:07:36.447Z,10.97
2019-04-29T07:10:05.978Z,11.60
2019-04-29T07:12:35.062Z,12.23
2019-04-29T07:15:23.267Z,11.23
2019-04-29T07:17:52.366Z,11.50
2019-04-29T07:20:21.639Z,12.03
2019-04-29T07:22:50.943Z,11.77
2019-04-29T07:25:24.594Z,13.47
2019-04-29T07:27:52.303Z,12.50
2019-04-29T07:30:21.414Z,12.23
2019-04-29T07:32:50.515Z,13.07
2019-04-29T07:35:20.992Z,12.70
2019-04-29T07:37:50.118Z,12.97
2019-04-29T07:40:20.999Z,12.90
2019-04-29T07:42:50.205Z,12.53
2019-04-29T07:45:29.231Z,13.30
2019-04-29T07:48:01.581Z,13.43
2019-04-29T07:50:29.623Z,13.13
2019-04-29T07:53:01.831Z,12.50
2019-04-29T07:55:32.458Z,13.47
2019-04-29T07:58:01.846Z,12.97
2019-04-29T08:00:35.305Z,14.13
2019-04-29T08:03:07.102Z,13.57
2019-04-29T08:05:36.495Z,14.13
2019-04-29T08:08:05.999Z,13.87
2019-04-29T08:10:35.294Z,14.07
2019-04-29T08:13:04.608Z,14.53
2019-04-29T08:15:36.748Z,14.60
2019-04-29T08:18:06.860Z,14.73
2019-04-29T08:20:39.829Z,15.00
2019-04-29T08:23:06.929Z,14.93
2019-04-29T08:25:36.014Z,15.50
2019-04-29T08:28:05.257Z,14.30
2019-04-29T08:30:34.355Z,14.20
2019-04-29T08:33:14.889Z,15.70
2019-04-29T08:35:46.626Z,15.33
2019-04-29T08:38:14.711Z,16.57
2019-04-29T08:40:45.216Z,16.47
2019-04-29T08:43:32.409Z,16.90
2019-04-29T08:46:07.944Z,16.23
2019-04-29T08:48:37.118Z,15.27
2019-04-29T08:51:06.433Z,16.87
2019-04-29T08:53:35.534Z,16.40
2019-04-29T08:56:05.526Z,17.23
2019-04-29T08:58:38.901Z,16.30
2019-04-29T09:01:06.487Z,15.47
2019-04-29T09:03:40.614Z,15.23
2019-04-29T09:06:06.743Z,15.03
2019-04-29T09:08:35.982Z,15.67
2019-04-29T09:11:08.200Z,14.40
2019-04-29T09:13:47.918Z,14.50
2019-04-29T09:16:17.009Z,14.20
2019-04-29T09:18:46.076Z,14.07
2019-04-29T09:21:15.551Z,13.50
2019-04-29T09:23:45.021Z,13.07
2019-04-29T09:26:20.379Z,15.00
2019-04-29T09:28:50.015Z,13.33
2019-04-29T09:31:19.333Z,13.47
2019-04-29T09:33:49.275Z,12.87
2019-04-29T09:36:19.529Z,13.03
2019-04-29T09:38:48.608Z,12.47
2019-04-29T09:41:24.890Z,11.03
2019-04-29T09:44:21.876Z,12.03
2019-04-29T09:46:51.081Z,11.67
2019-04-29T09:49:20.233Z,11.17
2019-04-29T09:51:49.689Z,10.60
2019-04-29T09:54:18.809Z,10.37
2019-04-29T09:56:47.899Z,10.97
2019-04-29T09:59:31.070Z,11.13
2019-04-29T10:02:15.495Z,11.07
2019-04-29T10:05:03.644Z,14.33
2019-04-29T10:07:33.236Z,10.33
2019-04-29T10:10:06.934Z,10.13
2019-04-29T10:12:33.099Z,9.67
2019-04-29T10:15:02.280Z,9.10
2019-04-29T10:17:56.460Z,8.17
2019-04-29T10:20:32.576Z,9.43
2019-04-29T10:23:01.681Z,9.20
2019-04-29T10:25:30.858Z,8.23
2019-04-29T10:27:59.938Z,7.83
2019-04-29T10:30:31.173Z,7.27
2019-04-29T10:33:01.441Z,7.47
2019-04-29T10:35:30.510Z,6.80
2019-04-29T10:38:02.814Z,7.13
2019-04-29T10:40:52.468Z,7.40
2019-04-29T10:43:43.620Z,6.80
2019-04-29T10:46:30.450Z,7.47
2019-04-29T10:49:10.698Z,5.83
2019-04-29T10:51:39.770Z,7.10
2019-04-29T10:54:14.101Z,6.53
2019-04-29T10:56:41.823Z,7.83
2019-04-29T10:59:11.552Z,7.40
2019-04-29T11:02:33.924Z,6.93
2019-04-29T11:05:32.096Z,6.53
2019-04-29T11:08:09.994Z,8.83
2019-04-29T11:10:39.126Z,7.97
2019-04-29T11:13:08.221Z,8.00
2019-04-29T11:15:37.580Z,8.30
2019-04-29T11:18:08.009Z,7.57
2019-04-29T11:20:37.258Z,8.37
2019-04-29T11:23:17.927Z,8.40
2019-04-29T11:26:09.480Z,7.57
2019-04-29T11:28:38.114Z,7.10
2019-04-29T11:31:09.847Z,6.77
2019-04-29T11:33:45.638Z,7.10
2019-04-29T11:36:15.559Z,7.07
2019-04-29T11:38:44.657Z,7.10
2019-04-29T11:41:19.704Z,7.20
2019-04-29T11:43:46.637Z,7.30
2019-04-29T11:46:15.734Z,7.17
2019-04-29T11:48:45.093Z,7.97
2019-04-29T11:51:21.516Z,7.20
2019-04-29T11:53:51.027Z,7.23
2019-04-29T11:56:20.315Z,7.23
2019-04-29T11:59:11.228Z,7.07
2019-04-29T12:01:55.944Z,7.60
2019-04-29T12:04:44.157Z,6.93
2019-04-29T12:07:13.343Z,6.97
2019-04-29T12:09:42.524Z,7.57
2019-04-29T12:12:14.540Z,7.20
2019-04-29T12:14:53.194Z,7.17
2019-04-29T12:17:32.486Z,7.03
2019-04-29T12:20:08.970Z,7.70
2019-04-29T12:22:48.095Z,7.97
2019-04-29T12:25:09.131Z,7.47
2019-04-29T12:27:38.316Z,7.30
2019-04-29T12:30:09.411Z,8.63
2019-04-29T12:32:56.860Z,7.33
2019-04-29T12:35:34.519Z,6.77
2019-04-29T12:38:39.638Z,6.87
2019-04-29T12:41:21.623Z,6.27
2019-04-29T12:43:59.921Z,6.10
2019-04-29T12:46:36.526Z,6.60
2019-04-29T12:49:08.488Z,6.23
2019-04-29T12:51:36.529Z,6.07
2019-04-29T12:54:05.695Z,5.83
2019-04-29T12:56:36.846Z,5.97
2019-04-29T12:59:06.685Z,6.10
2019-04-29T13:01:55.750Z,6.07
2019-04-29T13:04:37.171Z,6.00
2019-04-29T13:07:34.561Z,6.40
2019-04-29T13:10:13.777Z,6.87
2019-04-29T13:12:44.500Z,5.97
2019-04-29T13:15:22.311Z,5.63
2019-04-29T13:18:23.095Z,6.20
2019-04-29T13:20:50.789Z,5.50
2019-04-29T13:23:33.279Z,5.90
2019-04-29T13:25:51.029Z,5.63
2019-04-29T13:28:29.759Z,5.03
2019-04-29T13:30:51.531Z,4.90
2019-04-29T13:33:21.113Z,4.80
2019-04-29T13:35:50.200Z,4.40
2019-04-29T13:38:19.333Z,4.50
2019-04-29T13:40:48.499Z,4.50
2019-04-29T13:43:20.783Z,4.27
2019-04-29T13:45:55.226Z,4.70
2019-04-29T13:48:54.825Z,4.43
2019-04-29T13:51:33.751Z,4.07
2019-04-29T13:53:46.112Z,4.10
2019-04-29T13:56:32.699Z,4.47
2019-04-29T13:58:46.073Z,4.13
2019-04-29T14:01:33.503Z,4.03
2019-04-29T14:04:26.199Z,4.70
2019-04-29T14:06:57.537Z,3.70
2019-04-29T14:09:26.257Z,3.93
2019-04-29T14:12:04.342Z,3.90
2019-04-29T14:14:28.222Z,3.57
2019-04-29T14:17:17.224Z,3.50
2019-04-29T14:19:40.962Z,3.63
2019-04-29T14:21:58.770Z,3.67
2019-04-29T14:24:27.959Z,2.80
2019-04-29T14:26:57.026Z,2.97
2019-04-29T14:29:28.292Z,2.50
2019-04-29T14:32:00.865Z,2.50
2019-04-29T14:34:37.780Z,2.10
2019-04-29T14:37:25.144Z,1.93
2019-04-29T14:39:37.910Z,1.70
2019-04-29T14:42:15.333Z,1.70
2019-04-29T14:44:51.537Z,1.67
2019-04-29T14:47:48.993Z,1.60
2019-04-29T14:50:20.648Z,1.57
2019-04-29T14:52:49.437Z,1.40
2019-04-29T14:55:24.723Z,1.10
2019-04-29T14:57:50.464Z,1.30
2019-04-29T15:00:26.492Z,0.90
2019-04-29T15:03:00.080Z,0.97
2019-04-29T15:05:26.505Z,1.00
2019-04-29T15:07:55.613Z,0.80
2019-04-29T15:10:26.597Z,0.90
2019-04-29T15:13:06.775Z,1.00
2019-04-29T15:15:48.660Z,1.40
2019-04-29T15:18:47.480Z,1.10
2019-04-29T15:21:43.258Z,1.00
2019-04-29T15:24:08.015Z,0.90
2019-04-29T15:26:37.087Z,1.03
2019-04-29T15:29:06.227Z,1.40
2019-04-29T15:31:35.245Z,1.10
2019-04-29T15:34:08.788Z,1.10
2019-04-29T15:36:36.003Z,1.40
2019-04-29T15:39:10.828Z,1.60
2019-04-29T15:41:38.730Z,1.67
2019-04-29T15:44:08.980Z,1.13
2019-04-29T15:46:46.185Z,1.30
2019-04-29T15:49:10.596Z,1.50
2019-04-29T15:51:39.667Z,1.47
2019-04-29T15:54:09.140Z,1.30
2019-04-29T15:56:39.985Z,1.30
2019-04-29T15:59:10.336Z,1.37
2019-04-29T16:01:41.474Z,1.30
2019-04-29T16:04:14.341Z,1.50
2019-04-29T16:07:01.115Z,1.53
2019-04-29T16:09:51.072Z,2.97
2019-04-29T16:12:21.384Z,3.17
2019-04-29T16:14:50.480Z,2.77
2019-04-29T16:17:20.760Z,2.77
2019-04-29T16:19:50.061Z,2.37
2019-04-29T16:22:20.183Z,2.17
2019-04-29T16:24:49.491Z,2.70
2019-04-29T16:27:18.537Z,2.50
2019-04-29T16:29:51.760Z,2.70
2019-04-29T16:32:27.878Z,2.47
2019-04-29T16:34:57.142Z,3.10
2019-04-29T16:37:31.901Z,2.93
2019-04-29T16:39:59.723Z,3.33
2019-04-29T16:42:36.472Z,2.80
2019-04-29T16:45:12.000Z,2.20
2019-04-29T16:47:37.138Z,2.50
2019-04-29T16:50:06.632Z,2.70
2019-04-29T16:52:35.703Z,3.50
2019-04-29T16:55:05.965Z,3.00
2019-04-29T16:57:35.268Z,3.00
2019-04-29T17:00:06.455Z,2.80
2019-04-29T17:02:36.392Z,2.97
2019-04-29T17:05:06.181Z,3.10
2019-04-29T17:07:35.408Z,3.40
2019-04-29T17:10:18.984Z,3.53
2019-04-29T17:12:50.251Z,3.67
2019-04-29T17:15:25.036Z,3.60
2019-04-29T17:17:48.652Z,3.40
2019-04-29T17:20:18.291Z,3.60
2019-04-29T17:22:47.336Z,3.70
2019-04-29T17:25:17.219Z,3.70
2019-04-29T17:27:58.579Z,3.73
2019-04-29T17:30:46.298Z,3.90
2019-04-29T17:33:26.006Z,3.70
2019-04-29T17:35:49.345Z,3.20
2019-04-29T17:38:18.594Z,3.40
2019-04-29T17:40:51.237Z,3.60
2019-04-29T17:43:38.404Z,4.23
2019-04-29T17:46:31.091Z,4.20
2019-04-29T17:49:15.215Z,3.47
2019-04-29T17:51:45.972Z,4.53
2019-04-29T17:54:18.595Z,4.73
2019-04-29T17:57:22.835Z,4.20
2019-04-29T17:59:42.131Z,4.53
2019-04-29T18:02:29.203Z,4.77
2019-04-29T18:05:12.108Z,4.80
2019-04-29T18:07:51.708Z,4.10
2019-04-29T18:10:29.836Z,3.90
2019-04-29T18:12:58.934Z,4.00
2019-04-29T18:15:41.877Z,3.70
2019-04-29T18:18:07.388Z,3.77
2019-04-29T18:20:55.225Z,3.93
2019-04-29T18:23:56.737Z,3.90
2019-04-29T18:26:27.222Z,4.50
2019-04-29T18:29:03.604Z,4.63
2019-04-29T18:31:30.568Z,4.57
2019-04-29T18:33:59.383Z,4.70
2019-04-29T18:36:28.700Z,4.50
2019-04-29T18:38:57.812Z,4.57
2019-04-29T18:41:28.836Z,4.73
2019-04-29T18:44:03.051Z,4.67
2019-04-29T18:46:28.485Z,3.90
2019-04-29T18:49:03.023Z,4.20
2019-04-29T18:51:28.849Z,4.47
2019-04-29T18:53:58.241Z,3.87
2019-04-29T18:56:27.261Z,4.00
2019-04-29T18:58:56.427Z,4.67
2019-04-29T19:01:28.802Z,3.70
2019-04-29T19:04:04.780Z,4.43
2019-04-29T19:06:35.068Z,4.00
2019-04-29T19:09:17.014Z,4.43
2019-04-29T19:11:36.316Z,4.20
2019-04-29T19:14:05.406Z,4.57
2019-04-29T19:16:36.271Z,4.27
2019-04-29T19:19:05.289Z,4.20
2019-04-29T19:21:34.520Z,4.60
2019-04-29T19:24:04.844Z,4.40
2019-04-29T19:26:35.009Z,5.13
2019-04-29T19:29:06.159Z,4.73
2019-04-29T19:31:36.969Z,4.90
2019-04-29T19:34:09.694Z,5.23
2019-04-29T19:36:37.085Z,5.03
2019-04-29T19:39:06.779Z,5.73
2019-04-29T19:41:35.929Z,5.70
2019-04-29T19:44:07.683Z,4.53
2019-04-29T19:46:38.483Z,5.30
2019-04-29T19:49:09.827Z,4.90
2019-04-29T19:51:39.207Z,5.13
2019-04-29T19:54:07.541Z,4.50
2019-04-29T19:56:36.618Z,4.43
2019-04-29T19:59:12.032Z,4.30
2019-04-29T20:01:37.942Z,4.37
2019-04-29T20:04:35.358Z,5.10
2019-04-29T20:07:09.005Z,4.23
2019-04-29T20:09:38.061Z,4.53
2019-04-29T20:12:12.652Z,4.67
2019-04-29T20:14:38.009Z,4.40
2019-04-29T20:17:27.530Z,3.97
2019-04-29T20:20:16.601Z,3.83
2019-04-29T20:22:50.992Z,3.70
2019-04-29T20:25:16.967Z,3.87
2019-04-29T20:27:47.683Z,3.77
2019-04-29T20:30:20.738Z,3.90
2019-04-29T20:32:48.352Z,4.90
2019-04-29T20:35:18.350Z,3.80
2019-04-29T20:37:51.908Z,3.53
2019-04-29T20:40:18.699Z,4.17
2019-04-29T20:42:49.263Z,3.60
2019-04-29T20:45:20.151Z,3.53
2019-04-29T20:47:49.482Z,3.57
2019-04-29T20:50:18.786Z,3.80
2019-04-29T20:53:02.423Z,4.00
2019-04-29T20:55:35.884Z,4.30
2019-04-29T20:58:05.736Z,3.93
2019-04-29T21:00:35.416Z,4.10
2019-04-29T21:03:09.370Z,4.53
2019-04-29T21:05:46.887Z,3.73
2019-04-29T21:08:14.529Z,4.90
2019-04-29T21:10:37.973Z,4.50
2019-04-29T21:13:32.346Z,5.20
2019-04-29T21:16:06.093Z,4.67
2019-04-29T21:18:36.329Z,5.33
2019-04-29T21:21:07.831Z,5.00
2019-04-29T21:23:36.884Z,5.57
2019-04-29T21:26:08.689Z,5.10
2019-04-29T21:28:41.246Z,5.07
2019-04-29T21:31:11.678Z,5.33
2019-04-29T21:33:38.528Z,5.20
2019-04-29T21:36:18.021Z,5.30
2019-04-29T21:39:08.184Z,4.93
2019-04-29T21:41:42.324Z,5.17
2019-04-29T21:44:11.383Z,5.03
2019-04-29T21:46:40.543Z,5.00
2019-04-29T21:49:11.572Z,4.83
2019-04-29T21:51:41.755Z,4.80
2019-04-29T21:54:14.197Z,4.67
2019-04-29T21:56:46.369Z,4.90
2019-04-29T21:59:13.095Z,4.97
2019-04-29T22:01:42.254Z,4.80
2019-04-29T22:04:11.604Z,4.80
2019-04-29T22:06:40.699Z,5.17
2019-04-29T22:09:36.069Z,4.80
2019-04-29T22:11:59.837Z,5.40
2019-04-29T22:14:28.987Z,5.30
2019-04-29T22:16:58.165Z,5.33
2019-04-29T22:19:28.204Z,5.63
2019-04-29T22:22:01.386Z,5.57
2019-04-29T22:24:28.384Z,5.43
2019-04-29T22:27:04.094Z,6.23
2019-04-29T22:29:32.155Z,6.07
2019-04-29T22:31:59.460Z,7.17
2019-04-29T22:34:28.538Z,8.47
2019-04-29T22:37:00.900Z,9.20
2019-04-29T22:39:30.139Z,8.93
2019-04-29T22:42:30.312Z,8.87
2019-04-29T22:45:00.755Z,8.80
2019-04-29T22:47:30.035Z,9.20
2019-04-29T22:50:03.210Z,8.17
2019-04-29T22:52:31.417Z,8.37
2019-04-29T22:55:01.759Z,7.40
2019-04-29T22:57:31.844Z,7.23
2019-04-29T23:00:01.086Z,6.80
2019-04-29T23:02:30.083Z,6.20
2019-04-29T23:04:59.174Z,5.47
2019-04-29T23:07:31.632Z,6.43
2019-04-29T23:10:00.738Z,5.60
2019-04-29T23:12:30.024Z,5.90
2019-04-29T23:14:59.339Z,5.47
2019-04-29T23:17:28.622Z,4.30
2019-04-29T23:20:05.141Z,3.77
2019-04-29T23:23:02.417Z,3.70
2019-04-29T23:25:38.719Z,3.43
2019-04-29T23:28:08.172Z,3.20
2019-04-29T23:30:37.479Z,3.53
2019-04-29T23:33:06.788Z,2.53
2019-04-29T23:35:39.784Z,2.57
2019-04-29T23:38:09.358Z,4.00
2019-04-29T23:40:38.224Z,3.80
2019-04-29T23:43:07.795Z,4.20
2019-04-29T23:45:37.115Z,5.10
2019-04-29T23:48:06.422Z,5.23
2019-04-29T23:50:36.009Z,6.40
2019-04-29T23:53:05.866Z,6.60
2019-04-29T23:55:35.713Z,6.93
2019-04-29T23:58:16.391Z,7.70
